CheckWX is a tool to help pilots better visualize weather data.  It is not intended as a substitute for an official pre-flight weather briefing.

02:08:41 UTC

KFMY METAR
Page Field Airport
Fort Myers, Florida, USA
Current

16 mins ago

KFMY 180153Z 00000KT 10SM CLR 23/18 A3001 RMK AO2 SLP164 T02280178 $
Observed
Feb-18 @ 01:53 UTC
Visibility
10 SM
Flight Rules
VFR
Cloud Levels
  • Clear skies
Temperature
23°C / 73°F
Dewpoint
18°C / 64°F
Humidity
74%
Altimeter
30.01" Hg
Pressure
1016.4 hPa
Previous

1 hour ago

KFMY 180053Z 00000KT 10SM CLR 24/18 A2999 RMK AO2 SLP159 T02390183 $
Observed
Feb-18 @ 00:53 UTC
Visibility
10 SM
Flight Rules
VFR
Cloud Levels
  • Clear skies
Temperature
24°C / 75°F
Dewpoint
18°C / 64°F
Humidity
69%
Altimeter
29.99" Hg
Pressure
1015.9 hPa
Previous

2 hours ago

KFMY 172353Z 19003KT 10SM CLR 24/18 A2998 RMK AO2 SLP153 T02440183 10283 20244 53012 $
Observed
Feb-17 @ 23:53 UTC
Wind
  • 190° at 3 KTS
Visibility
10 SM
Flight Rules
VFR
Cloud Levels
  • Clear skies
Temperature
24°C / 75°F
Dewpoint
18°C / 64°F
Humidity
69%
Altimeter
29.98" Hg
Pressure
1015.3 hPa